createdAt,value
2023-04-30T00:03:31.301Z,99890.25
2023-04-30T00:08:33.097Z,99893.59
2023-04-30T00:13:34.769Z,99901.97
2023-04-30T00:18:36.451Z,99913.72
2023-04-30T00:23:38.325Z,99916.22
2023-04-30T00:28:39.937Z,99924.56
2023-04-30T00:33:41.778Z,99906.00
2023-04-30T00:38:43.387Z,99918.59
2023-04-30T00:43:47.170Z,99918.56
2023-04-30T00:48:49.330Z,99937.84
2023-04-30T00:53:51.913Z,99943.69
2023-04-30T00:58:57.305Z,99952.94
2023-04-30T01:03:59.304Z,99961.31
2023-04-30T01:09:01.201Z,99960.41
2023-04-30T01:14:21.259Z,99968.72
2023-04-30T01:19:41.948Z,99965.31
2023-04-30T01:24:56.127Z,99961.06
2023-04-30T01:29:58.222Z,99971.97
2023-04-30T01:35:02.925Z,99963.56
2023-04-30T01:40:27.078Z,99959.38
2023-04-30T01:45:54.424Z,99961.03
2023-04-30T01:51:09.084Z,99960.97
2023-04-30T01:56:18.491Z,99957.59
2023-04-30T02:01:27.722Z,99956.78
2023-04-30T02:06:30.253Z,99971.06
2023-04-30T02:11:33.632Z,99975.25
2023-04-30T02:16:35.580Z,99971.00
2023-04-30T02:21:37.475Z,99975.19
2023-04-30T02:26:39.923Z,99982.63
2023-04-30T02:31:41.675Z,99995.19
2023-04-30T02:36:45.906Z,99984.31
2023-04-30T02:41:47.497Z,99985.97
2023-04-30T02:46:49.244Z,99990.19
2023-04-30T02:51:50.859Z,99996.91
2023-04-30T02:56:53.702Z,99993.56
2023-04-30T03:01:55.339Z,99996.91
2023-04-30T03:06:57.012Z,100007.75
2023-04-30T03:11:58.827Z,100017.09
2023-04-30T03:17:00.555Z,100017.91
2023-04-30T03:22:03.197Z,100027.16
2023-04-30T03:27:05.246Z,100028.84
2023-04-30T03:32:06.884Z,100028.84
2023-04-30T03:37:08.662Z,100024.59
2023-04-30T03:42:10.553Z,100033.88
2023-04-30T03:47:12.691Z,100045.63
2023-04-30T03:52:14.885Z,100048.16
2023-04-30T03:57:17.015Z,100058.31
2023-04-30T04:02:18.943Z,100059.19
2023-04-30T04:07:20.654Z,100073.81
2023-04-30T04:12:22.752Z,100083.34
2023-04-30T04:17:24.497Z,100088.34
2023-04-30T04:22:26.673Z,100093.38
2023-04-30T04:27:28.525Z,100105.22
2023-04-30T04:32:30.673Z,100108.84
2023-04-30T04:37:32.428Z,100117.44
2023-04-30T04:42:34.091Z,100121.94
2023-04-30T04:47:36.664Z,100128.88
2023-04-30T04:52:39.208Z,100135.72
2023-04-30T04:57:42.007Z,100124.72
2023-04-30T05:02:43.674Z,100117.91
2023-04-30T05:07:45.995Z,100127.09
2023-04-30T05:12:47.675Z,100139.63
2023-04-30T05:17:49.340Z,100140.66
2023-04-30T05:22:50.969Z,100150.09
2023-04-30T05:27:52.851Z,100158.47
2023-04-30T05:32:56.238Z,100158.31
2023-04-30T05:37:57.891Z,100161.69
2023-04-30T05:42:59.478Z,100158.28
2023-04-30T05:48:02.026Z,100158.22
2023-04-30T05:53:04.042Z,100163.47
2023-04-30T05:58:06.404Z,100169.41
2023-04-30T06:03:08.304Z,100172.78
2023-04-30T06:08:10.017Z,100165.25
2023-04-30T06:13:11.705Z,100178.75
2023-04-30T06:18:14.252Z,100166.09
2023-04-30T06:23:16.043Z,100177.91
2023-04-30T06:28:17.660Z,100176.19
2023-04-30T06:33:19.327Z,100175.38
2023-04-30T06:38:21.322Z,100190.56
2023-04-30T06:43:22.987Z,100187.19
2023-04-30T06:48:24.721Z,100183.78
2023-04-30T06:53:26.497Z,100192.19
2023-04-30T06:58:28.344Z,100198.06
2023-04-30T07:03:30.017Z,100188.81
2023-04-30T07:08:31.821Z,100194.69
2023-04-30T07:13:33.431Z,100183.78
2023-04-30T07:18:35.262Z,100198.91
2023-04-30T07:23:36.973Z,100177.78
2023-04-30T07:28:38.586Z,100200.53
2023-04-30T07:33:40.224Z,100192.91
2023-04-30T07:38:41.816Z,100194.63
2023-04-30T07:43:43.781Z,100186.03
2023-04-30T07:48:45.615Z,100191.91
2023-04-30T07:53:47.698Z,100214.00
2023-04-30T07:58:49.341Z,100219.94
2023-04-30T08:03:51.058Z,100225.06
2023-04-30T08:08:53.370Z,100224.22
2023-04-30T08:13:55.645Z,100220.81
2023-04-30T08:18:57.372Z,100234.41
2023-04-30T08:23:59.058Z,100234.22
2023-04-30T08:29:00.722Z,100228.28
2023-04-30T08:34:02.337Z,100231.41
2023-04-30T08:39:04.384Z,100227.06
2023-04-30T08:44:08.310Z,100222.06
2023-04-30T08:49:10.842Z,100242.00
2023-04-30T08:54:14.022Z,100242.84
2023-04-30T08:59:16.118Z,100247.34
2023-04-30T09:04:18.401Z,100246.81
2023-04-30T09:09:19.990Z,100249.41
2023-04-30T09:14:27.825Z,100237.25
2023-04-30T09:19:31.118Z,100251.44
2023-04-30T09:24:47.207Z,100241.88
2023-04-30T09:29:49.207Z,100243.63
2023-04-30T09:34:51.116Z,100243.41
2023-04-30T09:39:56.354Z,100241.84
2023-04-30T09:44:58.387Z,100234.63
2023-04-30T09:50:00.828Z,100225.28
2023-04-30T09:55:02.630Z,100226.94
2023-04-30T10:00:04.831Z,100229.50
2023-04-30T10:05:11.244Z,100225.94
2023-04-30T10:10:14.982Z,100233.72
2023-04-30T10:15:25.833Z,100221.75
2023-04-30T10:20:29.547Z,100205.25
2023-04-30T10:25:32.815Z,100208.53
2023-04-30T10:30:36.235Z,100201.44
2023-04-30T10:35:51.081Z,100197.88
2023-04-30T10:40:58.120Z,100195.63
2023-04-30T10:46:00.129Z,100190.47
2023-04-30T10:51:02.072Z,100178.97
2023-04-30T10:56:09.343Z,100171.78
2023-04-30T11:01:17.448Z,100176.66
2023-04-30T11:06:20.732Z,100169.84
2023-04-30T11:11:23.870Z,100158.53
2023-04-30T11:16:35.097Z,100169.59
2023-04-30T11:22:05.125Z,100164.28
2023-04-30T11:27:06.984Z,100163.63
2023-04-30T11:32:09.047Z,100173.94
2023-04-30T11:37:16.639Z,100172.28
2023-04-30T11:42:19.733Z,100172.91
2023-04-30T11:47:21.430Z,100167.97
2023-04-30T11:52:25.606Z,100172.38
2023-04-30T11:57:27.206Z,100159.44
2023-04-30T12:02:29.051Z,100159.31
2023-04-30T12:07:30.715Z,100171.22
2023-04-30T12:12:32.430Z,100169.66
2023-04-30T12:17:35.651Z,100163.34
2023-04-30T12:22:37.658Z,100152.09
2023-04-30T12:27:45.372Z,100162.28
2023-04-30T12:32:50.939Z,100151.91
2023-04-30T12:38:02.210Z,100149.47
2023-04-30T12:43:08.887Z,100149.03
2023-04-30T12:48:11.270Z,100147.38
2023-04-30T12:53:13.285Z,100152.94
2023-04-30T12:58:15.173Z,100137.25
2023-04-30T13:03:21.607Z,100146.56
2023-04-30T13:08:23.592Z,100131.09
2023-04-30T13:13:25.487Z,100125.66
2023-04-30T13:18:27.312Z,100126.06
2023-04-30T13:23:30.395Z,100111.84
2023-04-30T13:28:32.341Z,100117.34
2023-04-30T13:33:34.074Z,100115.72
2023-04-30T13:38:35.670Z,100106.41
2023-04-30T13:43:41.422Z,100104.75
2023-04-30T13:48:43.869Z,100108.47
2023-04-30T13:53:45.592Z,100105.41
2023-04-30T13:58:47.195Z,100099.75
2023-04-30T14:03:48.899Z,100089.13
2023-04-30T14:08:50.620Z,100078.94
2023-04-30T14:13:52.537Z,100077.41
2023-04-30T14:18:54.197Z,100078.53
2023-04-30T14:23:55.903Z,100065.25
2023-04-30T14:28:58.086Z,100068.16
2023-04-30T14:34:00.049Z,100079.53
2023-04-30T14:39:04.470Z,100068.69
2023-04-30T14:44:06.083Z,100067.81
2023-04-30T14:49:07.751Z,100068.53
2023-04-30T14:54:09.706Z,100069.97
2023-04-30T14:59:12.039Z,100068.19
2023-04-30T15:04:13.624Z,100055.66
2023-04-30T15:09:15.676Z,100045.34
2023-04-30T15:14:17.435Z,100041.81
2023-04-30T15:19:19.194Z,100044.72
2023-04-30T15:24:22.625Z,100046.69
2023-04-30T15:29:25.003Z,100054.19
2023-04-30T15:34:26.769Z,100051.56
2023-04-30T15:39:28.660Z,100065.44
2023-04-30T15:44:30.344Z,100068.66
2023-04-30T15:49:32.030Z,100052.63
2023-04-30T15:54:33.724Z,100054.28
2023-04-30T15:59:35.928Z,100057.38
2023-04-30T16:04:37.516Z,100049.53
2023-04-30T16:09:39.481Z,100055.03
2023-04-30T16:14:41.247Z,100058.22
2023-04-30T16:19:43.017Z,100048.03
2023-04-30T16:24:44.679Z,100042.06
2023-04-30T16:29:46.459Z,100039.03
2023-04-30T16:34:48.071Z,100035.09
2023-04-30T16:39:49.682Z,100031.22
2023-04-30T16:44:51.465Z,100027.22
2023-04-30T16:49:53.444Z,100030.69
2023-04-30T16:54:55.605Z,100029.97
2023-04-30T16:59:57.453Z,100037.50
2023-04-30T17:04:59.292Z,100034.03
2023-04-30T17:10:01.073Z,100036.56
2023-04-30T17:15:03.829Z,100039.41
2023-04-30T17:20:06.315Z,100038.94
2023-04-30T17:25:08.375Z,100043.47
2023-04-30T17:30:10.135Z,100049.47
2023-04-30T17:35:11.728Z,100055.50
2023-04-30T17:40:13.637Z,100045.38
2023-04-30T17:45:16.359Z,100049.78
2023-04-30T17:50:18.874Z,100053.31
2023-04-30T17:55:21.976Z,100070.34
2023-04-30T18:00:24.099Z,100076.38
2023-04-30T18:05:25.936Z,100073.94
2023-04-30T18:10:27.867Z,100065.63
2023-04-30T18:15:34.992Z,100082.75
2023-04-30T18:20:38.553Z,100082.84
2023-04-30T18:25:42.359Z,100092.19
2023-04-30T18:30:45.121Z,100089.84
2023-04-30T18:35:49.723Z,100092.44
2023-04-30T18:40:55.772Z,100091.66
2023-04-30T18:45:57.682Z,100097.63
2023-04-30T18:50:59.514Z,100098.47
2023-04-30T18:56:01.114Z,100101.91
2023-04-30T19:01:04.364Z,100112.91
2023-04-30T19:06:06.231Z,100112.91
2023-04-30T19:11:08.579Z,100113.78
2023-04-30T19:16:10.314Z,100126.41
2023-04-30T19:21:13.058Z,100133.16
2023-04-30T19:26:14.695Z,100140.69
2023-04-30T19:31:17.870Z,100147.41
2023-04-30T19:36:19.591Z,100155.00
2023-04-30T19:41:21.710Z,100155.00
2023-04-30T19:46:23.663Z,100154.13
2023-04-30T19:51:25.871Z,100170.94
2023-04-30T19:56:27.576Z,100165.84
2023-04-30T20:01:29.472Z,100170.84
2023-04-30T20:06:31.704Z,100164.06
2023-04-30T20:11:33.390Z,100166.53
2023-04-30T20:16:35.063Z,100172.38
2023-04-30T20:21:36.780Z,100173.13
2023-04-30T20:26:38.669Z,100179.00
2023-04-30T20:31:40.543Z,100180.63
2023-04-30T20:36:43.306Z,100185.56
2023-04-30T20:41:47.918Z,100187.16
2023-04-30T20:46:49.729Z,100187.06
2023-04-30T20:51:51.615Z,100187.78
2023-04-30T20:56:53.260Z,100189.47
2023-04-30T21:01:54.900Z,100189.41
2023-04-30T21:06:56.635Z,100195.16
2023-04-30T21:11:58.299Z,100200.84
2023-04-30T21:16:59.931Z,100214.16
2023-04-30T21:22:01.663Z,100217.50
2023-04-30T21:27:04.197Z,100217.34
2023-04-30T21:32:05.825Z,100222.25
2023-04-30T21:37:07.451Z,100224.63
2023-04-30T21:42:09.298Z,100221.75
2023-04-30T21:47:11.119Z,100232.53
2023-04-30T21:52:12.806Z,100232.31
2023-04-30T21:57:14.437Z,100233.94
2023-04-30T22:02:23.777Z,100226.31
2023-04-30T22:07:27.331Z,100224.59
2023-04-30T22:12:28.928Z,100227.03
2023-04-30T22:17:30.681Z,100221.91
2023-04-30T22:22:33.016Z,100230.94
2023-04-30T22:27:34.632Z,100222.28
2023-04-30T22:32:36.349Z,100227.13
2023-04-30T22:37:40.606Z,100230.25
2023-04-30T22:42:43.577Z,100227.47
2023-04-30T22:47:45.862Z,100226.38
2023-04-30T22:52:47.805Z,100228.81
2023-04-30T22:57:49.394Z,100229.47
2023-04-30T23:02:51.043Z,100229.28
2023-04-30T23:07:54.097Z,100228.41
2023-04-30T23:12:56.648Z,100234.19
2023-04-30T23:18:00.343Z,100236.53
2023-04-30T23:23:02.330Z,100238.66
2023-04-30T23:28:05.000Z,100240.03
2023-04-30T23:33:06.840Z,100237.50
2023-04-30T23:38:09.304Z,100227.41
2023-04-30T23:43:11.683Z,100229.84
2023-04-30T23:48:13.588Z,100233.91
2023-04-30T23:53:17.168Z,100227.16
2023-04-30T23:58:18.800Z,100226.25
